Time;durP1;ratioP1;P1;durP2;ratioP2;P2;SDS_P1;SDS_P2;PMS_P1;PMS_P2;Temp;Humidity;BMP_temperature;BMP_pressure;BME280_temperature;BME280_humidity;BME280_pressure;Samples;Min_cycle;Max_cycle;Signal;HPM_P1;HPM_P2
2022/10/26 00:01:14;;;;;;;6.63;4.87;;;;;;;7.45;88.63;100879.86;1751347;82;21012;-77
2022/10/26 00:03:43;;;;;;;8.77;5.40;;;;;;;7.43;88.46;100876.41;1751670;82;21021;-72
2022/10/26 00:06:18;;;;;;;9.13;5.37;;;;;;;7.38;88.32;100879.97;1751268;82;21462;-72
2022/10/26 00:08:46;;;;;;;6.13;4.07;;;;;;;7.36;88.45;100881.73;1751284;82;21198;-72
2022/10/26 00:11:14;;;;;;;8.90;5.17;;;;;;;7.33;88.32;100883.53;1751277;82;21032;-76
2022/10/26 00:13:41;;;;;;;8.63;5.40;;;;;;;7.31;88.62;100883.99;1751211;82;21009;-72
2022/10/26 00:16:14;;;;;;;10.50;6.13;;;;;;;7.30;88.69;100880.98;1751247;82;20985;-72
2022/10/26 00:18:41;;;;;;;8.67;5.33;;;;;;;7.34;89.30;100882.22;1751067;81;20990;-72
2022/10/26 00:21:10;;;;;;;10.23;5.53;;;;;;;7.33;88.86;100883.08;1751266;82;21110;-72
2022/10/26 00:23:39;;;;;;;8.97;4.90;;;;;;;7.30;88.78;100883.58;1751816;82;21029;-72
2022/10/26 00:26:07;;;;;;;7.63;5.13;;;;;;;7.26;88.54;100884.50;1751429;82;21422;-72
2022/10/26 00:28:34;;;;;;;9.03;5.53;;;;;;;7.21;88.45;100893.72;1751466;82;21032;-72
2022/10/26 00:31:04;;;;;;;9.50;5.73;;;;;;;7.20;88.71;100893.73;1751202;82;21024;-72
2022/10/26 00:33:31;;;;;;;17.67;8.93;;;;;;;7.18;88.79;100902.89;1751398;80;21135;-72
2022/10/26 00:35:59;;;;;;;10.43;6.93;;;;;;;7.15;88.91;100907.70;1751497;82;20909;-73
2022/10/26 00:38:27;;;;;;;8.87;6.13;;;;;;;7.17;89.47;100908.11;1751586;82;21019;-72
2022/10/26 00:40:54;;;;;;;10.10;5.80;;;;;;;7.19;89.62;100902.44;1751333;82;21029;-72
2022/10/26 00:43:29;;;;;;;10.70;5.27;;;;;;;7.15;89.30;100901.64;1751461;82;21017;-72
2022/10/26 00:45:58;;;;;;;8.67;5.40;;;;;;;7.11;89.20;100909.06;1751441;82;22133;-72
2022/10/26 00:48:37;;;;;;;8.00;4.80;;;;;;;7.07;89.10;100901.74;1751537;82;21024;-72
2022/10/26 00:51:10;;;;;;;8.20;5.33;;;;;;;7.04;89.03;100902.20;1751860;82;21021;-72
2022/10/26 00:53:38;;;;;;;6.43;4.97;;;;;;;6.97;88.87;100892.33;1751359;81;20966;-72
2022/10/26 00:56:06;;;;;;;5.03;4.20;;;;;;;6.96;89.08;100902.79;1751188;82;21017;-72
2022/10/26 00:58:34;;;;;;;9.00;5.50;;;;;;;6.93;89.18;100897.17;1751216;82;21145;-72
2022/10/26 01:01:02;;;;;;;5.97;5.17;;;;;;;6.92;89.34;100897.59;1751315;82;21491;-72
2022/10/26 01:03:31;;;;;;;8.80;5.53;;;;;;;6.95;89.58;100906.26;1751381;82;21470;-73
2022/10/26 01:05:58;;;;;;;10.53;4.90;;;;;;;6.91;89.26;100907.61;1751245;82;21486;-72
2022/10/26 01:08:27;;;;;;;8.67;5.97;;;;;;;6.88;89.28;100902.89;1751332;82;21076;-72
2022/10/26 01:10:57;;;;;;;12.17;6.00;;;;;;;6.92;90.06;100905.41;1751203;82;21139;-72
2022/10/26 01:13:27;;;;;;;9.50;6.35;;;;;;;6.94;90.00;100906.70;1751341;82;21004;-72
2022/10/26 01:16:35;;;;;;;16.52;7.20;;;;;;;6.95;90.24;100907.56;1751627;81;20993;-72
2022/10/26 01:19:44;;;;;;;6.53;5.10;;;;;;;6.98;90.70;100905.77;1752863;81;21021;-72
2022/10/26 01:22:19;;;;;;;6.93;5.00;;;;;;;7.04;90.71;100902.20;1751613;82;20999;-72
2022/10/26 01:25:42;;;;;;;6.13;4.80;;;;;;;7.02;90.55;100901.39;1750661;81;21093;-73
2022/10/26 01:28:21;;;;;;;6.67;4.30;;;;;;;6.98;90.16;100897.95;1749385;81;21068;-73
2022/10/26 01:30:49;;;;;;;7.33;4.90;;;;;;;6.92;89.88;100894.13;1750045;81;21485;-72
2022/10/26 01:33:38;;;;;;;5.77;4.27;;;;;;;6.89;89.81;100900.24;1751610;82;21482;-72
2022/10/26 01:36:44;;;;;;;9.35;4.87;;;;;;;6.87;89.89;100897.23;1751908;82;21306;-73
2022/10/26 01:39:20;;;;;;;7.50;4.77;;;;;;;6.84;89.86;100901.19;1751735;82;21131;-72
2022/10/26 01:41:54;;;;;;;11.20;5.43;;;;;;;6.79;89.92;100893.45;1751519;81;21447;-72
2022/10/26 01:44:27;;;;;;;6.67;5.00;;;;;;;6.78;89.95;100895.63;1751447;82;21075;-72
2022/10/26 01:46:58;;;;;;;9.27;6.07;;;;;;;6.73;89.81;100892.21;1751066;81;21019;-72
2022/10/26 01:49:29;;;;;;;9.18;5.37;;;;;;;6.71;90.02;100892.70;1751886;82;22001;-72
2022/10/26 01:51:57;;;;;;;7.70;5.07;;;;;;;6.72;90.31;100891.80;1751635;82;21122;-72
2022/10/26 01:54:24;;;;;;;7.90;5.33;;;;;;;6.72;90.49;100889.64;1751621;82;21029;-73
2022/10/26 01:56:58;;;;;;;5.67;4.87;;;;;;;6.74;90.82;100886.59;1751316;82;21373;-80
2022/10/26 02:00:04;;;;;;;6.70;4.77;;;;;;;6.73;90.43;100890.91;1751464;82;22072;-73
2022/10/26 02:03:00;;;;;;;6.67;4.20;;;;;;;6.69;90.32;100886.19;1751520;82;21013;-72
2022/10/26 02:05:38;;;;;;;7.30;5.17;;;;;;;6.65;90.27;100892.75;1749078;80;21142;-72
2022/10/26 02:08:32;;;;;;;7.77;5.37;;;;;;;6.65;90.67;100891.03;1750549;81;21574;-73
2022/10/26 02:11:22;;;;;;;8.23;5.33;;;;;;;6.65;90.68;100896.24;1750700;81;21076;-72
2022/10/26 02:13:58;;;;;;;;;;;;;;;6.63;90.51;100892.79;1753679;81;21533;-72
2022/10/26 02:16:42;;;;;;;7.90;5.07;;;;;;;6.60;90.60;100895.88;1750272;81;20494;-72
2022/10/26 02:19:44;;;;;;;8.07;5.47;;;;;;;6.56;90.59;100895.03;1734882;82;21042;-72
2022/10/26 02:22:35;;;;;;;7.83;5.40;;;;;;;6.53;90.53;100892.47;1751414;82;21487;-72
2022/10/26 02:25:07;;;;;;;10.23;6.03;;;;;;;6.51;90.49;100890.77;1751704;82;20953;-73
2022/10/26 02:27:42;;;;;;;7.97;5.87;;;;;;;6.47;90.50;100889.50;1749954;81;21418;-72
2022/10/26 02:30:11;;;;;;;9.27;5.63;;;;;;;6.44;90.33;100888.69;1751207;81;21537;-72
2022/10/26 02:32:44;;;;;;;10.60;5.47;;;;;;;6.40;90.38;100892.20;1751469;82;21125;-72
2022/10/26 02:35:14;;;;;;;8.50;5.50;;;;;;;6.39;90.57;100891.34;1730523;82;21540;-72
2022/10/26 02:37:43;;;;;;;9.28;6.05;;;;;;;6.38;90.62;100892.23;1751964;82;21016;-72
2022/10/26 02:40:15;;;;;;;9.33;6.23;;;;;;;6.38;90.66;100900.05;1751408;82;21028;-73
2022/10/26 02:42:45;;;;;;;8.30;6.00;;;;;;;6.37;90.79;100894.39;1751697;82;21514;-72
2022/10/26 02:45:17;;;;;;;9.43;6.53;;;;;;;6.37;90.90;100897.45;1751558;82;21132;-72
2022/10/26 02:47:45;;;;;;;7.27;5.60;;;;;;;6.38;90.96;100900.49;1751624;82;21004;-73
2022/10/26 02:50:13;;;;;;;7.73;5.57;;;;;;;6.36;90.84;100898.34;1751394;82;21468;-72
2022/10/26 02:52:58;;;;;;;9.13;5.80;;;;;;;6.32;90.68;100901.42;1751528;82;21506;-72
2022/10/26 02:55:29;;;;;;;5.57;4.97;;;;;;;6.30;90.72;100904.92;1751428;81;21044;-73
2022/10/26 02:58:01;;;;;;;7.10;6.00;;;;;;;6.28;90.92;100906.23;1751376;81;21292;-72
2022/10/26 03:00:30;;;;;;;7.73;5.13;;;;;;;6.29;91.04;100905.37;1750200;81;21479;-72
2022/10/26 03:03:01;;;;;;;7.13;4.70;;;;;;;6.27;91.03;100908.42;1751494;82;21289;-72
2022/10/26 03:05:35;;;;;;;6.30;4.60;;;;;;;6.24;91.04;100909.31;1751285;82;20942;-72
2022/10/26 03:08:03;;;;;;;6.73;4.57;;;;;;;6.25;91.10;100911.47;1751324;82;21052;-72
2022/10/26 03:10:33;;;;;;;6.83;4.70;;;;;;;6.27;91.55;100910.17;1751361;82;21129;-72
2022/10/26 03:13:00;;;;;;;5.78;4.22;;;;;;;6.29;91.42;100914.48;1751398;82;21486;-72
2022/10/26 03:15:27;;;;;;;5.50;4.40;;;;;;;6.28;91.36;100914.04;1751270;82;22119;-72
2022/10/26 03:17:55;;;;;;;5.43;4.23;;;;;;;6.30;91.74;100913.59;1751389;82;20897;-75
2022/10/26 03:20:21;;;;;;;7.20;3.70;;;;;;;6.33;91.57;100913.55;1751292;82;21060;-72
2022/10/26 03:22:48;;;;;;;6.47;4.00;;;;;;;6.30;91.04;100916.64;1751255;82;21943;-72
2022/10/26 03:25:16;;;;;;;6.43;4.10;;;;;;;6.25;90.74;100912.77;1751305;82;21494;-72
2022/10/26 03:27:43;;;;;;;5.10;3.70;;;;;;;6.22;90.71;100911.06;1751422;82;21001;-72
2022/10/26 03:30:11;;;;;;;5.20;3.73;;;;;;;6.19;90.56;100906.34;1751428;82;21430;-72
2022/10/26 03:32:38;;;;;;;6.40;3.87;;;;;;;6.15;90.61;100903.33;1751388;82;21097;-72
2022/10/26 03:35:07;;;;;;;8.57;4.10;;;;;;;6.12;90.57;100905.52;1751273;82;21487;-72
2022/10/26 03:37:34;;;;;;;6.37;4.23;;;;;;;6.10;90.62;100903.84;1751308;82;21006;-75
2022/10/26 03:40:01;;;;;;;12.30;3.73;;;;;;;6.08;90.59;100906.89;1751447;82;21442;-72
2022/10/26 03:42:35;;;;;;;5.43;4.10;;;;;;;6.07;90.78;100907.75;1751351;82;21006;-72
2022/10/26 03:45:05;;;;;;;6.47;4.57;;;;;;;6.06;90.80;100904.30;1751388;82;21005;-72
2022/10/26 03:47:32;;;;;;;7.78;4.45;;;;;;;6.05;90.82;100912.98;1751410;82;21157;-72
2022/10/26 03:50:00;;;;;;;6.40;4.80;;;;;;;6.08;91.36;100909.50;1751373;82;21506;-73
2022/10/26 03:52:27;;;;;;;6.40;4.00;;;;;;;6.09;91.21;100917.72;1751425;82;21510;-72
2022/10/26 03:54:54;;;;;;;5.20;3.90;;;;;;;6.06;91.22;100914.70;1751358;82;21013;-72
2022/10/26 03:57:21;;;;;;;8.40;3.70;;;;;;;6.04;90.99;100908.64;1751403;82;21020;-72
2022/10/26 03:59:48;;;;;;;6.17;4.13;;;;;;;6.01;91.07;100910.87;1751376;82;21119;-72
2022/10/26 04:02:16;;;;;;;5.97;4.10;;;;;;;6.00;90.87;100910.42;1751536;82;21057;-80
2022/10/26 04:04:43;;;;;;;7.50;4.67;;;;;;;5.96;90.73;100912.65;1751371;82;20871;-72
2022/10/26 04:07:10;;;;;;;7.00;4.20;;;;;;;5.92;90.67;100920.01;1751564;82;20997;-72
2022/10/26 04:09:38;;;;;;;4.93;3.70;;;;;;;5.88;90.60;100923.53;1751411;82;21021;-72
2022/10/26 04:12:06;;;;;;;5.33;4.20;;;;;;;5.85;90.74;100924.87;1751541;82;21106;-72
2022/10/26 04:14:34;;;;;;;5.83;4.80;;;;;;;5.83;90.97;100925.31;1751330;82;21084;-72
2022/10/26 04:17:01;;;;;;;5.30;4.30;;;;;;;5.88;91.36;100930.48;1751617;82;21061;-72
2022/10/26 04:19:29;;;;;;;5.87;4.40;;;;;;;5.91;91.46;100926.11;1751328;82;21073;-72
2022/10/26 04:21:56;;;;;;;5.67;4.40;;;;;;;5.90;91.24;100930.01;1751582;82;21076;-75
2022/10/26 04:24:23;;;;;;;7.63;4.40;;;;;;;5.86;91.12;100927.88;1751297;82;21514;-72
2022/10/26 04:26:50;;;;;;;5.47;3.83;;;;;;;5.83;90.98;100929.66;1751609;82;21075;-72
2022/10/26 04:29:17;;;;;;;6.53;5.37;;;;;;;5.80;91.05;100928.80;1751366;82;21009;-72
2022/10/26 04:31:45;;;;;;;7.57;4.93;;;;;;;5.80;91.15;100925.34;1751295;82;21056;-72
2022/10/26 04:34:12;;;;;;;7.17;5.60;;;;;;;5.77;90.99;100923.62;1751392;82;21601;-73
2022/10/26 04:36:39;;;;;;;6.43;5.10;;;;;;;5.77;91.36;100920.17;1751280;82;22119;-72
2022/10/26 04:39:06;;;;;;;7.40;4.83;;;;;;;5.82;91.83;100921.00;1751741;82;20937;-72
2022/10/26 04:41:34;;;;;;;6.27;4.47;;;;;;;5.85;91.84;100924.87;1751273;82;21415;-72
2022/10/26 04:44:01;;;;;;;9.10;5.13;;;;;;;5.83;91.64;100931.81;1751259;82;21045;-72
2022/10/26 04:46:29;;;;;;;7.53;4.90;;;;;;;5.82;91.49;100928.80;1751520;82;20993;-72
2022/10/26 04:48:56;;;;;;;6.70;4.77;;;;;;;5.79;91.29;100936.60;1751257;82;21109;-72
2022/10/26 04:51:23;;;;;;;5.97;4.57;;;;;;;5.79;91.44;100931.40;1751294;82;22040;-72
2022/10/26 04:53:57;;;;;;;6.07;4.63;;;;;;;5.75;91.20;100927.97;1751535;82;20925;-72
2022/10/26 04:56:23;;;;;;;6.60;4.63;;;;;;;5.73;91.26;100927.11;1748983;82;21543;-73
2022/10/26 04:58:53;;;;;;;6.40;4.70;;;;;;;5.75;91.46;100928.41;1735885;82;21480;-72
2022/10/26 05:01:21;;;;;;;6.28;4.60;;;;;;;5.79;91.85;100926.20;1735941;81;21077;-72
2022/10/26 05:03:50;;;;;;;7.43;5.17;;;;;;;5.76;91.51;100928.42;1735881;82;20903;-72
2022/10/26 05:06:18;;;;;;;7.63;5.07;;;;;;;5.77;91.66;100928.83;1735811;81;21462;-73
2022/10/26 05:08:46;;;;;;;8.73;5.47;;;;;;;5.78;91.71;100922.73;1735832;82;21006;-72
2022/10/26 05:11:13;;;;;;;9.63;5.23;;;;;;;5.77;91.63;100922.33;1735896;82;21038;-72
2022/10/26 05:13:41;;;;;;;8.47;5.40;;;;;;;5.78;91.69;100927.08;1735908;82;21203;-72
2022/10/26 05:16:08;;;;;;;9.03;5.03;;;;;;;5.78;91.70;100918.84;1736050;81;21025;-72
2022/10/26 05:18:35;;;;;;;8.17;5.57;;;;;;;5.76;91.45;100927.53;1735886;81;21046;-72
2022/10/26 05:21:02;;;;;;;9.10;5.80;;;;;;;5.76;91.63;100928.83;1736062;82;21085;-72
2022/10/26 05:23:30;;;;;;;8.43;5.67;;;;;;;5.77;91.83;100926.23;1735805;82;21077;-72
2022/10/26 05:25:57;;;;;;;8.50;5.90;;;;;;;5.75;91.51;100931.87;1736289;82;21105;-72
2022/10/26 05:28:24;;;;;;;8.23;6.03;;;;;;;5.75;91.62;100928.41;1735726;82;21455;-73
2022/10/26 05:30:51;;;;;;;9.40;6.40;;;;;;;5.77;91.94;100932.73;1736032;82;21519;-72
2022/10/26 05:33:18;;;;;;;7.07;5.10;;;;;;;5.82;92.19;100932.70;1735896;82;21005;-72
2022/10/26 05:35:45;;;;;;;7.10;5.40;;;;;;;5.84;92.07;100930.92;1735911;82;21037;-72
2022/10/26 05:38:16;;;;;;;8.07;5.27;;;;;;;5.84;91.96;100933.97;1736245;81;21106;-72
2022/10/26 05:40:48;;;;;;;6.53;5.03;;;;;;;5.81;91.96;100940.91;1735870;82;21037;-72
2022/10/26 05:43:16;;;;;;;6.27;4.80;;;;;;;5.80;91.85;100948.75;1736096;82;21010;-72
2022/10/26 05:45:44;;;;;;;7.20;5.20;;;;;;;5.80;92.03;100944.85;1735910;81;20998;-73
2022/10/26 05:48:11;;;;;;;6.60;5.13;;;;;;;5.83;92.19;100947.87;1736090;82;21500;-72
2022/10/26 05:50:39;;;;;;;7.07;4.70;;;;;;;5.88;92.82;100951.30;1735845;82;21103;-72
2022/10/26 05:53:06;;;;;;;7.07;5.13;;;;;;;5.92;92.98;100948.63;1735984;82;21499;-72
2022/10/26 05:55:34;;;;;;;7.17;5.17;;;;;;;5.95;92.77;100951.67;1735883;82;20963;-72
2022/10/26 05:58:02;;;;;;;7.70;5.60;;;;;;;5.97;93.04;100950.79;1746829;81;21056;-72
2022/10/26 06:00:31;;;;;;;12.07;6.80;;;;;;;6.02;93.22;100955.52;1751525;82;21616;-72
2022/10/26 06:03:18;;;;;;;8.90;7.20;;;;;;;6.12;94.24;100952.37;1751404;82;21131;-72
2022/10/26 06:05:55;;;;;;;10.83;7.43;;;;;;;6.30;95.04;100954.39;1751073;81;21056;-76
2022/10/26 06:08:25;;;;;;;10.70;7.57;;;;;;;6.34;94.61;100956.92;1751364;82;21005;-72
2022/10/26 06:10:53;;;;;;;;;;;;;;;6.44;95.04;100955.95;1754034;82;22163;-72
2022/10/26 06:13:21;;;;;;;9.37;6.97;;;;;;;6.54;95.52;100960.62;1751850;82;20577;-72
2022/10/26 06:16:12;;;;;;;10.03;7.30;;;;;;;6.59;94.91;100956.65;1751355;82;21961;-72
2022/10/26 06:19:01;;;;;;;10.27;7.70;;;;;;;6.62;94.62;100961.82;1751511;82;20970;-72
2022/10/26 06:21:45;;;;;;;10.17;7.70;;;;;;;6.68;95.13;100967.84;1751496;82;21040;-72
2022/10/26 06:24:42;;;;;;;9.53;7.73;;;;;;;6.75;95.17;100968.61;1751019;81;21009;-72
2022/10/26 06:28:00;;;;;;;11.40;7.50;;;;;;;6.81;95.14;100972.89;1751396;82;21051;-72
2022/10/26 06:30:27;;;;;;;10.87;7.20;;;;;;;6.85;95.03;100968.93;1751467;82;21105;-72
2022/10/26 06:32:55;;;;;;;9.43;7.07;;;;;;;6.90;94.98;100969.74;1751344;82;21045;-72
2022/10/26 06:35:44;;;;;;;9.67;7.40;;;;;;;6.95;94.92;100974.88;1751379;82;21069;-72
2022/10/26 06:38:18;;;;;;;12.67;8.03;;;;;;;6.99;95.23;100971.81;1750779;82;21403;-72
2022/10/26 06:40:49;;;;;;;9.20;6.93;;;;;;;7.02;95.01;100974.38;1751429;82;20977;-73
2022/10/26 06:43:27;;;;;;;10.57;8.03;;;;;;;7.08;95.21;100977.74;1752098;82;21330;-72
2022/10/26 06:46:11;;;;;;;11.53;8.83;;;;;;;7.17;95.64;100988.48;1751281;82;21069;-72
2022/10/26 06:49:02;;;;;;;9.57;7.40;;;;;;;7.26;95.99;100986.19;1753170;81;20986;-72
2022/10/26 06:51:32;;;;;;;10.43;8.10;;;;;;;7.34;96.10;100983.92;1751891;81;21001;-73
2022/10/26 06:54:08;;;;;;;10.90;8.35;;;;;;;7.42;96.25;100981.17;1751710;81;21009;-72
2022/10/26 06:56:36;;;;;;;12.67;8.53;;;;;;;7.49;96.37;100978.91;1750511;81;21108;-72
2022/10/26 06:59:32;;;;;;;10.73;8.80;;;;;;;7.57;96.49;100988.78;1751295;82;21001;-72
2022/10/26 07:02:00;;;;;;;12.63;8.63;;;;;;;7.64;96.60;100982.16;1665222;86;21098;-72
2022/10/26 07:04:27;;;;;;;11.97;8.77;;;;;;;7.72;96.65;100985.06;1726401;82;21017;-75
2022/10/26 07:06:55;;;;;;;11.90;8.63;;;;;;;7.78;96.71;100982.35;1751412;82;21088;-72
2022/10/26 07:09:23;;;;;;;12.13;8.67;;;;;;;7.86;96.74;100987.91;1751439;82;21131;-72
2022/10/26 07:11:51;;;;;;;10.13;8.10;;;;;;;7.93;96.80;100985.63;1751326;82;21066;-72
2022/10/26 07:14:18;;;;;;;12.93;8.47;;;;;;;8.00;96.76;100988.53;1751496;82;21021;-72
2022/10/26 07:16:46;;;;;;;12.57;8.37;;;;;;;8.08;96.80;100992.32;1751622;82;21013;-73
2022/10/26 07:19:14;;;;;;;11.43;7.27;;;;;;;8.13;96.76;100991.80;1751372;82;21502;-72
2022/10/26 07:21:41;;;;;;;13.23;7.50;;;;;;;8.20;96.84;100990.78;1751431;82;21448;-72
2022/10/26 07:24:09;;;;;;;11.80;7.47;;;;;;;8.27;96.95;100989.80;1751372;82;21438;-72
2022/10/26 07:26:36;;;;;;;9.33;7.57;;;;;;;8.32;96.94;100987.97;1751514;82;21018;-76
2022/10/26 07:29:03;;;;;;;10.07;7.13;;;;;;;8.41;97.07;100990.89;1751351;82;21966;-79
2022/10/26 07:31:31;;;;;;;11.77;7.83;;;;;;;8.47;97.16;100986.39;1751674;82;21037;-72
2022/10/26 07:33:58;;;;;;;7.63;6.60;;;;;;;8.56;97.25;100988.42;1751403;82;21132;-72
2022/10/26 07:36:27;;;;;;;12.53;7.67;;;;;;;8.64;97.32;100989.98;1751274;82;21021;-72
2022/10/26 07:38:54;;;;;;;10.13;7.20;;;;;;;8.70;97.24;100982.05;1731200;82;21438;-72
2022/10/26 07:41:21;;;;;;;9.57;6.73;;;;;;;8.78;97.38;100984.94;1751292;82;22131;-72
2022/10/26 07:43:49;;;;;;;7.33;6.60;;;;;;;8.86;97.33;100989.56;1751331;82;20982;-72
2022/10/26 07:46:17;;;;;;;9.20;6.97;;;;;;;8.91;97.08;100988.58;1751477;82;21139;-72
2022/10/26 07:48:44;;;;;;;7.37;5.90;;;;;;;8.93;96.76;100997.70;1751249;82;21032;-72
2022/10/26 07:51:12;;;;;;;9.53;6.57;;;;;;;8.95;96.65;100995.91;1751738;82;21080;-72
2022/10/26 07:53:39;;;;;;;8.37;7.00;;;;;;;9.00;96.95;100994.51;1751316;82;20998;-72
2022/10/26 07:56:09;;;;;;;9.40;6.90;;;;;;;9.07;97.13;100982.59;1751658;82;21005;-73
2022/10/26 07:58:36;;;;;;;8.80;6.30;;;;;;;9.15;97.24;100985.05;1737177;81;21137;-74
2022/10/26 08:01:10;;;;;;;8.63;6.80;;;;;;;9.24;97.67;100976.98;1730942;82;20924;-72
2022/10/26 08:03:37;;;;;;;13.13;6.67;;;;;;;9.35;97.90;100984.59;1730789;82;21014;-72
2022/10/26 08:06:06;;;;;;;9.10;6.80;;;;;;;9.46;97.96;100987.83;1731120;82;21020;-72
2022/10/26 08:08:34;;;;;;;8.53;6.50;;;;;;;9.57;98.01;100989.74;1730830;82;20981;-72
2022/10/26 08:11:02;;;;;;;8.77;6.90;;;;;;;9.70;97.94;100989.44;1730958;82;21116;-72
2022/10/26 08:13:29;;;;;;;9.60;6.60;;;;;;;9.82;98.09;100993.09;1730827;82;21415;-72
2022/10/26 08:16:01;;;;;;;11.53;6.40;;;;;;;9.96;98.16;100998.84;1731363;82;21037;-72
2022/10/26 08:18:28;;;;;;;8.03;5.73;;;;;;;10.11;98.16;100994.11;1730868;82;21024;-73
2022/10/26 08:21:02;;;;;;;7.43;5.53;;;;;;;10.24;97.84;101000.75;1731127;82;21137;-72
2022/10/26 08:23:31;;;;;;;6.07;4.77;;;;;;;10.36;97.68;100994.36;1730846;82;21257;-72
2022/10/26 08:26:00;;;;;;;10.30;5.60;;;;;;;10.50;97.49;100996.16;1730936;82;20985;-77
2022/10/26 08:28:29;;;;;;;5.90;4.97;;;;;;;10.68;97.71;101000.05;1730743;82;20997;-73
2022/10/26 08:30:56;;;;;;;5.50;4.80;;;;;;;10.87;97.69;101003.87;1731019;82;21013;-73
2022/10/26 08:33:24;;;;;;;6.40;4.80;;;;;;;11.06;97.54;100998.95;1730890;81;21000;-73
2022/10/26 08:36:01;;;;;;;6.67;4.75;;;;;;;11.26;97.61;100999.66;1731002;82;22062;-73
2022/10/26 08:38:29;;;;;;;6.95;4.60;;;;;;;11.45;97.13;100997.34;1730779;82;21474;-74
2022/10/26 08:40:57;;;;;;;5.53;4.03;;;;;;;11.64;96.80;100991.48;1731068;82;21047;-73
2022/10/26 08:43:50;;;;;;;6.58;4.35;;;;;;;11.81;96.42;100992.68;1731072;82;21434;-73
2022/10/26 08:46:25;;;;;;;6.70;4.85;;;;;;;11.95;95.73;100991.41;1730912;82;20985;-73
2022/10/26 08:49:00;;;;;;;6.97;4.20;;;;;;;12.15;96.00;100994.20;1730997;82;21470;-73
2022/10/26 08:51:34;;;;;;;5.37;3.90;;;;;;;12.37;95.62;101001.36;1730770;82;21024;-73
2022/10/26 08:54:15;;;;;;;6.20;3.80;;;;;;;12.57;95.42;100999.34;1730843;83;21016;-72
2022/10/26 08:56:47;;;;;;;6.90;4.08;;;;;;;12.76;94.81;101001.70;1730531;82;21024;-73
2022/10/26 08:59:50;;;;;;;5.62;3.92;;;;;;;12.96;94.89;100997.02;1730852;82;21060;-73
2022/10/26 09:02:17;;;;;;;5.35;3.80;;;;;;;13.18;94.82;100997.06;1730544;82;21099;-73
2022/10/26 09:04:45;;;;;;;5.97;3.87;;;;;;;13.33;93.54;100989.94;1730888;82;21048;-72
2022/10/26 09:07:27;;;;;;;6.95;3.77;;;;;;;13.51;93.54;100994.08;1731364;82;21060;-73
2022/10/26 09:10:26;;;;;;;3.98;3.00;;;;;;;13.69;93.49;100994.66;1730908;82;21005;-73
2022/10/26 09:13:17;;;;;;;6.22;3.30;;;;;;;13.90;92.76;100995.55;1730398;82;21040;-72
2022/10/26 09:16:15;;;;;;;5.90;3.22;;;;;;;14.11;92.70;100998.23;1729156;82;21123;-73
2022/10/26 09:19:00;;;;;;;4.72;3.20;;;;;;;14.35;92.45;101000.26;1730805;82;21490;-73
2022/10/26 09:22:05;;;;;;;4.83;3.10;;;;;;;14.60;91.52;101006.67;1731099;82;21000;-73
2022/10/26 09:24:35;;;;;;;6.97;3.95;;;;;;;14.80;91.09;101005.34;1731138;82;20993;-73
2022/10/26 09:27:08;;;;;;;6.50;3.55;;;;;;;15.01;90.40;101007.92;1730559;82;20982;-72
2022/10/26 09:29:42;;;;;;;7.60;4.08;;;;;;;15.13;90.05;101006.91;1730888;82;21961;-72
2022/10/26 09:32:20;;;;;;;4.95;4.00;;;;;;;15.28;89.49;101008.44;1731028;82;21048;-73
2022/10/26 09:34:52;;;;;;;7.25;3.30;;;;;;;15.45;89.40;101013.77;1731611;82;20921;-73
2022/10/26 09:37:31;;;;;;;4.28;3.27;;;;;;;15.67;88.89;101008.31;1728224;82;21053;-72
2022/10/26 09:40:06;;;;;;;7.87;3.58;;;;;;;15.83;88.19;101000.53;1731187;82;21024;-72
2022/10/26 09:42:41;;;;;;;6.15;3.47;;;;;;;16.00;87.95;101003.66;1731320;82;21839;-73
2022/10/26 09:45:28;;;;;;;5.55;3.25;;;;;;;16.15;87.11;101002.87;1730836;82;21013;-72
2022/10/26 09:48:01;;;;;;;5.87;3.10;;;;;;;16.33;86.98;101002.41;1731300;82;21263;-72
2022/10/26 09:50:36;;;;;;;4.55;3.00;;;;;;;16.59;86.81;101001.52;1730586;82;21084;-72
2022/10/26 09:53:04;;;;;;;5.12;2.95;;;;;;;16.79;85.98;101005.31;1731183;82;21581;-72
2022/10/26 09:55:35;;;;;;;6.08;3.10;;;;;;;17.06;85.73;101008.75;1730844;82;21128;-73
2022/10/26 09:58:05;;;;;;;6.10;3.05;;;;;;;17.30;85.14;101002.11;1734900;82;20906;-72
2022/10/26 10:00:34;;;;;;;6.70;3.10;;;;;;;17.57;84.76;101005.02;1731029;82;20989;-72
2022/10/26 10:03:02;;;;;;;6.55;3.33;;;;;;;17.82;84.06;101003.64;1751773;82;21017;-72
2022/10/26 10:05:32;;;;;;;5.95;3.37;;;;;;;18.07;83.38;101005.72;1751453;82;21479;-79
2022/10/26 10:08:24;;;;;;;6.97;3.20;;;;;;;18.28;82.83;101003.10;1751834;82;21054;-73
2022/10/26 10:11:03;;;;;;;5.58;3.45;;;;;;;18.48;82.13;101008.56;1751368;82;21016;-72
2022/10/26 10:13:34;;;;;;;6.53;2.98;;;;;;;18.78;81.63;101014.29;1751632;82;21494;-73
2022/10/26 10:16:09;;;;;;;5.83;3.08;;;;;;;19.01;80.72;101019.98;1751654;82;20986;-79
2022/10/26 10:18:38;;;;;;;4.85;2.52;;;;;;;19.16;80.11;101019.03;1751449;81;21009;-73
2022/10/26 10:21:08;;;;;;;4.78;2.47;;;;;;;19.30;79.52;101015.50;1751531;82;21610;-73
2022/10/26 10:23:38;;;;;;;;;;;;;;;19.42;79.08;101014.70;1754351;82;20985;-73
2022/10/26 10:26:09;;;;;;;;;;;;;;;19.63;78.24;101018.27;1752908;81;20147;-72
2022/10/26 10:28:41;;;;;;;4.35;2.17;;;;;;;19.90;77.89;101007.63;1751818;82;20423;-73
2022/10/26 10:31:28;;;;;;;5.17;2.40;;;;;;;20.00;77.59;101009.58;1751511;82;21012;-73
2022/10/26 10:33:55;;;;;;;4.03;2.20;;;;;;;20.11;76.49;101010.19;1751478;82;21157;-73
2022/10/26 10:36:28;;;;;;;4.92;2.45;;;;;;;20.18;76.06;101000.85;1730559;82;21017;-73
2022/10/26 10:38:56;;;;;;;4.92;2.15;;;;;;;20.31;75.81;101000.00;1751403;82;21017;-72
2022/10/26 10:41:36;;;;;;;3.55;1.98;;;;;;;20.46;75.80;101004.30;1751500;82;20994;-78
2022/10/26 10:44:20;;;;;;;3.87;1.82;;;;;;;20.63;75.28;101001.34;1751895;82;21410;-72
2022/10/26 10:46:48;;;;;;;5.50;1.87;;;;;;;20.87;75.04;100996.59;1751449;82;21288;-73
2022/10/26 10:49:23;;;;;;;4.40;2.10;;;;;;;21.10;74.12;101001.12;1751752;81;20937;-79
2022/10/26 10:51:51;;;;;;;4.17;1.77;;;;;;;21.32;73.76;101000.42;1751834;82;21048;-73
2022/10/26 10:54:32;;;;;;;3.52;2.25;;;;;;;21.47;72.93;100998.96;1751447;82;21446;-74
2022/10/26 10:57:21;;;;;;;5.25;1.82;;;;;;;21.57;72.09;100998.18;1750601;81;21021;-73
2022/10/26 11:00:02;;;;;;;3.65;1.67;;;;;;;21.60;71.45;100992.61;1734450;81;21738;-73
2022/10/26 11:02:45;;;;;;;4.35;1.65;;;;;;;21.79;70.99;100996.59;1730820;82;20909;-73
2022/10/26 11:05:44;;;;;;;2.52;1.60;;;;;;;22.00;70.20;100990.98;1730648;82;21017;-73
2022/10/26 11:08:20;;;;;;;3.60;1.80;;;;;;;22.21;69.24;100992.52;1730399;82;21452;-72
2022/10/26 11:11:04;;;;;;;4.95;1.72;;;;;;;22.46;68.72;100998.16;1729456;82;20989;-72
2022/10/26 11:13:51;;;;;;;2.92;1.70;;;;;;;22.67;68.21;101002.32;1730884;82;21082;-72
2022/10/26 11:16:24;;;;;;;2.70;1.70;;;;;;;22.77;66.93;100996.24;1669492;82;21012;-72
2022/10/26 11:19:05;;;;;;;3.00;1.70;;;;;;;22.90;66.20;101007.67;1730060;82;21107;-73
2022/10/26 11:21:36;;;;;;;3.62;1.57;;;;;;;23.02;66.51;101006.72;1721705;82;21000;-72
2022/10/26 11:24:12;;;;;;;2.40;1.50;;;;;;;23.16;65.92;101003.78;1730961;82;21024;-79
2022/10/26 11:26:54;;;;;;;6.40;2.00;;;;;;;23.28;65.15;101004.64;1730849;82;21125;-72
2022/10/26 11:29:59;;;;;;;3.50;1.42;;;;;;;23.26;64.35;101005.73;1730725;82;21048;-72
2022/10/26 11:32:41;;;;;;;3.47;1.57;;;;;;;23.23;63.87;100998.80;1731216;82;21004;-72
2022/10/26 11:35:32;;;;;;;4.50;1.80;;;;;;;23.26;63.97;100997.70;1730804;82;21008;-72
2022/10/26 11:38:31;;;;;;;3.02;1.60;;;;;;;23.47;63.97;100995.94;1731253;82;21505;-72
2022/10/26 11:41:19;;;;;;;2.87;1.60;;;;;;;23.43;62.95;100994.50;1734250;82;21131;-73
2022/10/26 11:43:50;;;;;;;2.92;1.72;;;;;;;23.48;62.64;100995.47;1730855;82;21056;-73
2022/10/26 11:46:42;;;;;;;5.22;1.75;;;;;;;23.45;62.00;100991.22;1731167;82;21028;-73
2022/10/26 11:49:23;;;;;;;5.40;2.02;;;;;;;23.38;61.90;100995.36;1731285;82;21040;-78
2022/10/26 11:51:56;;;;;;;3.95;1.60;;;;;;;23.46;61.87;100992.91;1730830;82;21120;-73
2022/10/26 11:54:47;;;;;;;3.10;1.32;;;;;;;23.43;61.19;100989.64;1731039;82;21118;-73
2022/10/26 11:57:15;;;;;;;4.28;1.60;;;;;;;23.48;61.21;100984.28;1729785;82;21422;-73
2022/10/26 11:59:50;;;;;;;2.90;1.42;;;;;;;23.72;60.80;100987.26;1743533;82;21053;-73
2022/10/26 12:02:24;;;;;;;4.55;1.40;;;;;;;23.88;60.29;100982.82;1751394;82;21084;-73